Time;durP1;ratioP1;P1;durP2;ratioP2;P2;SDS_P1;SDS_P2;PMS_P1;PMS_P2;Temp;Humidity;BMP_temperature;BMP_pressure;BME280_temperature;BME280_humidity;BME280_pressure;Samples;Min_cycle;Max_cycle;Signal;HPM_P1;HPM_P2
2023/01/24 00:01:21;;;;;;;17.10;8.80;;;;;;;3.16;72.24;100680.53;4970097;28;20195;-88
2023/01/24 00:04:36;;;;;;;14.43;9.80;;;;;;;3.12;72.28;100679.72;4952481;28;20191;-88
2023/01/24 00:07:38;;;;;;;14.15;7.25;;;;;;;3.15;72.30;100684.88;4970973;28;20218;-88
2023/01/24 00:13:53;;;;;;;14.77;7.95;;;;;;;3.15;72.45;100700.44;4952362;28;20964;-89
2023/01/24 00:16:22;;;;;;;16.40;10.20;;;;;;;3.16;72.39;100694.38;4952247;28;20239;-87
2023/01/24 00:18:52;;;;;;;13.30;7.88;;;;;;;3.15;72.44;100684.88;4970709;28;20260;-89
2023/01/24 00:21:34;;;;;;;18.33;9.30;;;;;;;3.18;72.59;100694.34;4970965;28;20234;-89
2023/01/24 00:24:03;;;;;;;15.50;10.00;;;;;;;3.19;72.45;100691.72;4972297;28;20231;-88
2023/01/24 00:26:39;;;;;;;;;;;;;;;;;;;;;
2023/01/24 00:29:05;;;;;;;13.88;7.10;;;;;;;3.21;72.32;100684.75;4925748;29;20220;-88
2023/01/24 00:31:33;;;;;;;9.00;7.20;;;;;;;3.20;72.32;100692.59;4931399;29;20225;-88
2023/01/24 00:34:01;;;;;;;9.85;7.70;;;;;;;3.24;72.41;100686.44;4929670;29;20217;-87
2023/01/24 00:36:29;;;;;;;13.45;7.15;;;;;;;3.20;72.54;100688.25;4930237;29;20475;-89
2023/01/24 00:38:57;;;;;;;18.48;9.07;;;;;;;3.22;72.85;100689.09;4928583;29;20227;-89
2023/01/24 00:41:35;;;;;;;14.73;8.75;;;;;;;3.25;72.29;100675.19;4931231;28;20627;-88
2023/01/24 00:44:03;;;;;;;16.50;8.95;;;;;;;3.23;72.29;100687.34;4933271;29;20219;-88
2023/01/24 00:46:29;;;;;;;11.05;6.63;;;;;;;3.19;72.69;100686.53;4915782;29;20223;-88
2023/01/24 00:49:01;;;;;;;15.40;10.00;;;;;;;3.23;72.27;100683.00;4931615;29;20247;-89
2023/01/24 00:54:26;;;;;;;15.85;8.70;;;;;;;3.30;72.42;100679.44;4927295;29;20615;-88
2023/01/24 00:57:00;;;;;;;13.93;8.70;;;;;;;3.31;71.99;100688.91;4937113;28;20212;-88
2023/01/24 00:59:33;;;;;;;15.27;9.90;;;;;;;3.35;72.36;100683.66;4959083;28;20227;-88
2023/01/24 01:02:08;;;;;;;15.48;8.90;;;;;;;3.38;72.14;100687.09;4978337;28;20208;-89
2023/01/24 01:04:41;;;;;;;16.13;10.88;;;;;;;3.40;72.16;100693.09;4981299;28;20463;-89
2023/01/24 01:07:06;;;;;;;13.43;10.05;;;;;;;3.45;72.08;100696.47;4983119;28;20207;-89
2023/01/24 01:09:32;;;;;;;13.33;9.07;;;;;;;3.45;72.37;100688.69;4970241;28;20210;-88
2023/01/24 01:12:02;;;;;;;11.40;8.35;;;;;;;3.50;71.95;100686.88;4972978;28;20318;-89
2023/01/24 01:14:27;;;;;;;15.13;9.70;;;;;;;3.53;71.91;100691.16;4967808;28;20254;-89
2023/01/24 01:16:53;;;;;;;9.93;7.87;;;;;;;3.53;71.90;100692.00;4971222;28;20258;-88
2023/01/24 01:19:18;;;;;;;13.80;9.07;;;;;;;3.58;71.59;100689.34;4974441;28;20290;-88
2023/01/24 01:21:44;;;;;;;15.57;7.97;;;;;;;3.60;71.66;100697.97;4971659;28;20212;-88
2023/01/24 01:24:10;;;;;;;13.30;8.33;;;;;;;3.60;71.59;100686.72;4976504;28;20246;-88
2023/01/24 01:26:36;;;;;;;11.48;8.75;;;;;;;3.59;71.92;100692.78;4959142;28;20261;-87
2023/01/24 01:29:01;;;;;;;10.17;7.00;;;;;;;3.64;71.64;100699.63;4959093;28;20196;-90
2023/01/24 01:31:26;;;;;;;11.30;7.83;;;;;;;3.69;71.43;100689.16;4968736;28;20654;-90
2023/01/24 01:33:52;;;;;;;12.83;8.20;;;;;;;3.74;71.41;100684.72;4969427;28;20620;-89
2023/01/24 01:36:21;;;;;;;14.40;9.20;;;;;;;3.75;71.37;100687.31;4975605;28;20199;-88
2023/01/24 01:38:47;;;;;;;18.77;11.20;;;;;;;3.75;71.62;100692.50;4954509;28;20398;-89
2023/01/24 01:41:13;;;;;;;12.83;7.40;;;;;;;3.79;71.42;100692.44;4975900;28;20221;-88
2023/01/24 01:44:37;;;;;;;12.82;7.03;;;;;;;3.80;71.39;100692.41;4973024;28;20254;-88
2023/01/24 01:46:26;;;;;;;16.33;9.85;;;;;;;3.82;71.22;100697.59;4976157;28;20280;-88
2023/01/24 01:48:56;;;;;;;13.98;8.60;;;;;;;3.85;70.96;100702.72;4957759;28;20203;-88
2023/01/24 01:51:26;;;;;;;14.30;8.90;;;;;;;3.84;71.09;100688.03;4971519;28;20199;-90
2023/01/24 01:54:11;;;;;;;14.18;9.30;;;;;;;3.87;70.93;100695.75;4970934;28;20231;-88
2023/01/24 01:56:37;;;;;;;10.93;8.02;;;;;;;3.87;71.15;100699.22;4974930;28;20203;-87
2023/01/24 01:59:09;;;;;;;13.07;8.80;;;;;;;3.89;71.10;100706.97;4957567;28;20555;-88
2023/01/24 02:01:34;;;;;;;12.88;9.10;;;;;;;3.84;70.90;100701.88;4975010;28;20210;-88
2023/01/24 02:04:15;;;;;;;12.97;8.67;;;;;;;3.86;71.05;100709.63;4969904;28;20211;-88
2023/01/24 02:06:43;;;;;;;19.23;12.18;;;;;;;3.84;71.11;100709.66;4957605;28;20207;-87
2023/01/24 02:09:09;;;;;;;17.42;9.10;;;;;;;3.83;71.40;100704.50;4958695;28;20255;-88
2023/01/24 02:11:37;;;;;;;11.02;7.30;;;;;;;3.81;71.35;100714.03;4974117;28;20230;-88
2023/01/24 02:16:52;;;;;;;14.85;11.00;;;;;;;3.80;71.47;100715.78;4981595;28;20254;-87
2023/01/24 02:19:26;;;;;;;19.77;10.43;;;;;;;3.82;71.56;100715.78;4981583;28;20210;-89
2023/01/24 02:22:09;;;;;;;12.55;8.18;;;;;;;3.79;71.42;100715.84;4973160;28;20216;-90
2023/01/24 02:24:41;;;;;;;14.30;8.80;;;;;;;3.81;71.68;100714.03;4953483;28;20772;-89
2023/01/24 02:27:07;;;;;;;14.65;11.32;;;;;;;3.81;71.18;100716.66;4957682;28;20215;-88
2023/01/24 02:29:32;;;;;;;17.33;8.77;;;;;;;3.83;71.23;100717.47;4953603;28;20203;-88
2023/01/24 02:32:00;;;;;;;19.17;12.50;;;;;;;3.82;71.57;100718.38;4950128;28;20491;-88
2023/01/24 02:34:31;;;;;;;20.15;10.93;;;;;;;3.83;71.30;100717.47;4967973;28;20343;-88
2023/01/24 02:37:08;;;;;;;15.32;8.27;;;;;;;3.85;71.38;100710.53;4955487;28;20202;-88
2023/01/24 02:39:53;;;;;;;16.88;9.45;;;;;;;3.87;71.30;100722.59;4969894;28;20818;-89
2023/01/24 02:42:23;;;;;;;15.55;7.82;;;;;;;3.87;71.18;100714.81;4971903;28;20282;-90
2023/01/24 02:45:02;;;;;;;15.65;9.55;;;;;;;3.88;71.29;100720.84;4955152;28;20601;-88
2023/01/24 02:47:32;;;;;;;9.98;7.50;;;;;;;3.89;71.21;100720.84;4954173;28;20195;-88
2023/01/24 02:50:05;;;;;;;15.38;9.48;;;;;;;3.90;70.98;100717.34;4971831;28;20207;-89
2023/01/24 02:55:15;;;;;;;15.10;7.93;;;;;;;3.93;71.22;100724.22;4973422;28;20199;-88
2023/01/24 03:00:26;;;;;;;15.13;10.27;;;;;;;3.93;71.05;100734.63;4970636;28;20207;-88
2023/01/24 03:02:52;;;;;;;13.23;8.27;;;;;;;3.95;71.52;100736.31;4958866;28;20199;-88
2023/01/24 03:05:20;;;;;;;14.88;9.23;;;;;;;3.98;70.75;100738.00;4977061;28;20195;-89
2023/01/24 03:07:53;;;;;;;15.10;10.00;;;;;;;3.96;70.80;100735.41;4978004;28;20206;-88
2023/01/24 03:10:24;;;;;;;20.02;10.32;;;;;;;3.95;70.96;100736.31;4960812;28;20521;-87
2023/01/24 03:34:53;;;;;;;12.30;9.75;;;;;;;3.96;70.90;100755.38;4977598;28;20207;-89
2023/01/24 03:40:13;;;;;;;18.73;8.27;;;;;;;3.97;70.79;100768.34;4959990;28;20247;-88
2023/01/24 03:42:49;;;;;;;14.55;9.13;;;;;;;3.99;70.54;100757.91;4978304;28;20211;-89
2023/01/24 03:45:29;;;;;;;13.77;9.20;;;;;;;4.02;70.62;100768.25;4959587;28;20246;-88
2023/01/24 03:47:59;;;;;;;19.60;8.98;;;;;;;4.03;70.64;100769.97;4976741;28;20221;-88
2023/01/24 03:53:17;;;;;;;13.68;10.20;;;;;;;4.01;70.55;100765.69;4977425;28;20220;-88
2023/01/24 03:55:45;;;;;;;15.88;8.93;;;;;;;3.99;70.57;100776.94;4946184;28;20311;-88
2023/01/24 03:58:12;;;;;;;14.25;9.55;;;;;;;3.99;70.47;100774.34;4976916;28;20195;-89
2023/01/24 04:00:38;;;;;;;15.70;10.13;;;;;;;3.99;70.76;100784.75;4959699;28;20203;-87
2023/01/24 04:03:23;;;;;;;18.80;10.57;;;;;;;3.99;70.61;100789.09;4955013;28;20610;-88
2023/01/24 04:05:56;;;;;;;16.63;9.27;;;;;;;3.97;71.09;100777.91;4955479;28;20261;-88
2023/01/24 04:08:22;;;;;;;16.17;9.63;;;;;;;3.96;70.72;100779.63;4955901;28;20200;-88
2023/01/24 04:10:50;;;;;;;17.42;9.20;;;;;;;3.96;71.06;100794.34;4970954;28;20350;-88
2023/01/24 04:13:16;;;;;;;14.98;8.55;;;;;;;3.93;70.75;100789.22;4955949;28;20932;-87
2023/01/24 04:15:44;;;;;;;14.40;9.90;;;;;;;3.91;70.75;100789.22;4943358;28;20906;-89
2023/01/24 04:18:25;;;;;;;18.38;9.23;;;;;;;3.92;70.64;100790.13;4953022;28;20744;-88
2023/01/24 04:20:50;;;;;;;26.63;11.83;;;;;;;3.91;70.82;100796.19;4941437;28;20200;-89
2023/01/24 04:23:16;;;;;;;14.20;9.83;;;;;;;3.86;71.05;100798.88;4940656;28;20290;-88
2023/01/24 04:25:42;;;;;;;14.37;10.07;;;;;;;3.86;70.89;100795.41;4952182;28;20204;-88
2023/01/24 04:28:10;;;;;;;18.07;9.33;;;;;;;3.84;70.92;100798.03;4937641;28;20964;-88
2023/01/24 04:30:36;;;;;;;15.48;10.00;;;;;;;3.83;71.11;100792.84;4940813;28;20550;-88
2023/01/24 04:33:04;;;;;;;18.45;9.43;;;;;;;3.83;71.24;100811.03;4935098;28;20254;-86
2023/01/24 04:35:30;;;;;;;20.27;11.63;;;;;;;3.84;71.54;100799.78;4931791;28;20856;-88
2023/01/24 04:38:02;;;;;;;19.70;11.35;;;;;;;3.81;71.77;100799.81;4939234;28;20219;-87
2023/01/24 04:41:00;;;;;;;14.13;11.27;;;;;;;3.78;71.44;100800.75;4938213;28;20554;-88
2023/01/24 04:43:27;;;;;;;15.77;8.57;;;;;;;3.79;71.27;100806.81;4957308;28;20599;-87
2023/01/24 04:45:59;;;;;;;16.73;10.43;;;;;;;3.77;71.50;100809.41;4937762;28;20754;-87
2023/01/24 04:48:33;;;;;;;14.90;11.40;;;;;;;3.79;71.41;100806.81;4938120;28;20251;-87
2023/01/24 04:51:02;;;;;;;20.43;9.97;;;;;;;3.77;71.60;100815.47;4940041;28;20215;-87
2023/01/24 04:53:31;;;;;;;19.77;11.23;;;;;;;3.76;71.33;100810.31;4951023;28;20345;-87
2023/01/24 04:56:02;;;;;;;14.55;9.48;;;;;;;3.76;71.29;100802.50;4934567;28;20287;-87
2023/01/24 04:58:32;;;;;;;18.65;9.50;;;;;;;3.77;71.34;100810.25;4937564;28;20670;-86
2023/01/24 05:01:00;;;;;;;16.13;9.15;;;;;;;3.79;71.47;100812.84;4935882;28;20338;-87
2023/01/24 05:03:27;;;;;;;14.82;9.55;;;;;;;3.82;71.42;100814.53;4917397;28;20300;-86
2023/01/24 05:05:54;;;;;;;17.58;11.35;;;;;;;3.79;71.10;100819.78;4905930;29;20200;-86
2023/01/24 05:08:20;;;;;;;12.23;8.55;;;;;;;3.75;71.26;100822.44;4910752;29;20206;-87
2023/01/24 05:10:46;;;;;;;20.40;10.00;;;;;;;3.74;71.29;100820.72;4917785;29;20213;-88
2023/01/24 05:13:12;;;;;;;14.87;9.87;;;;;;;3.73;71.39;100825.94;4925266;29;20228;-86
2023/01/24 05:15:38;;;;;;;14.93;9.43;;;;;;;3.72;71.42;100832.84;4917567;28;20542;-88
2023/01/24 05:18:05;;;;;;;13.15;6.90;;;;;;;3.72;71.24;100832.84;4926140;28;20204;-87
2023/01/24 05:20:36;;;;;;;14.57;9.20;;;;;;;3.71;71.38;100830.31;4936670;28;20208;-88
2023/01/24 05:23:02;;;;;;;21.17;13.30;;;;;;;3.71;71.31;100825.97;4953482;28;20204;-87
2023/01/24 05:25:33;;;;;;;11.20;7.78;;;;;;;3.73;71.32;100833.75;4936126;28;21128;-87
2023/01/24 05:28:03;;;;;;;19.75;12.00;;;;;;;3.74;71.26;100825.06;4926928;28;20215;-87
2023/01/24 05:30:31;;;;;;;14.15;8.80;;;;;;;3.75;71.15;100821.56;4947624;28;20570;-86
2023/01/24 05:33:05;;;;;;;14.73;11.25;;;;;;;3.75;71.16;100822.44;4929631;28;20224;-88
2023/01/24 05:35:31;;;;;;;13.35;8.05;;;;;;;3.75;71.42;100825.03;4934109;28;20311;-88
2023/01/24 05:37:57;;;;;;;12.93;8.68;;;;;;;3.79;71.32;100827.59;4949528;28;20279;-87
2023/01/24 05:40:26;;;;;;;13.45;9.10;;;;;;;3.80;71.17;100839.69;4929507;28;20204;-88
2023/01/24 05:42:51;;;;;;;13.35;7.90;;;;;;;3.79;71.28;100833.63;4933619;28;20929;-87
2023/01/24 05:45:25;;;;;;;15.40;9.63;;;;;;;3.78;71.23;100831.94;4933621;28;20212;-88
2023/01/24 05:47:54;;;;;;;12.32;7.10;;;;;;;3.77;71.34;100841.44;4945537;28;20835;-89
2023/01/24 05:50:35;;;;;;;22.77;8.23;;;;;;;3.80;70.95;100843.13;4950669;28;20232;-92
2023/01/24 05:53:45;;;;;;;16.17;8.00;;;;;;;3.80;71.12;100850.94;4946633;28;20599;-92
2023/01/24 05:56:31;;;;;;;;;;;;;;;;;;;;;
2023/01/24 05:59:10;;;;;;;13.10;8.85;;;;;;;3.83;71.07;100850.03;4941330;28;20203;-92
2023/01/24 06:01:42;;;;;;;12.93;8.75;;;;;;;3.85;70.92;100861.28;4949447;28;20561;-91
2023/01/24 06:04:34;;;;;;;;;;;;;;;;;;;;;
2023/01/24 06:07:38;;;;;;;;;;;;;;;;;;;;;
2023/01/24 06:10:20;;;;;;;15.40;8.65;;;;;;;3.88;71.13;100871.59;4941468;28;20960;-91
2023/01/24 06:13:37;;;;;;;;;;;;;;;;;;;;;
2023/01/24 06:16:48;;;;;;;;;;;;;;;;;;;;;
2023/01/24 06:19:27;;;;;;;13.02;8.85;;;;;;;3.88;70.70;100871.59;4947101;28;20200;-92
2023/01/24 06:22:38;;;;;;;;;;;;;;;;;;;;;
2023/01/24 06:25:15;;;;;;;11.80;7.70;;;;;;;3.84;70.76;100867.34;4941264;28;20228;-92
2023/01/24 06:27:56;;;;;;;;;;;;;;;;;;;;;
2023/01/24 06:30:45;;;;;;;;;;;;;;;;;;;;;
2023/01/24 06:33:36;;;;;;;14.18;9.43;;;;;;;3.86;70.96;100875.97;4941008;28;20777;-93
2023/01/24 06:36:52;;;;;;;;;;;;;;;;;;;;;
2023/01/24 06:39:44;;;;;;;;;;;;;;;;;;;;;
2023/01/24 06:49:09;;;;;;;17.33;10.20;;;;;;;3.89;70.82;100897.59;4941164;28;20223;-91
2023/01/24 06:52:01;;;;;;;;;;;;;;;;;;;;;
2023/01/24 06:54:49;;;;;;;17.10;8.48;;;;;;;3.93;70.62;100901.84;4946496;28;20243;-90
2023/01/24 06:57:47;;;;;;;;;;;;;;;;;;;;;
2023/01/24 07:00:33;;;;;;;13.15;8.98;;;;;;;3.97;70.76;100900.94;4926960;28;20239;-92
2023/01/24 07:03:19;;;;;;;16.02;8.52;;;;;;;3.97;70.88;100903.53;4955801;28;20192;-94
2023/01/24 07:06:22;;;;;;;;;;;;;;;;;;;;;
2023/01/24 07:09:10;;;;;;;;;;;;;;;;;;;;;
2023/01/24 07:12:07;;;;;;;;;;;;;;;;;;;;;
2023/01/24 07:14:41;;;;;;;16.35;9.35;;;;;;;3.98;70.67;100915.63;4942922;28;20236;-92
2023/01/24 07:17:27;;;;;;;;;;;;;;;;;;;;;
2023/01/24 07:20:36;;;;;;;17.70;9.75;;;;;;;4.00;70.98;100918.22;4940982;28;20216;-91
2023/01/24 07:23:51;;;;;;;13.00;8.93;;;;;;;4.01;70.80;100921.69;4928161;28;20212;-92
2023/01/24 07:26:42;;;;;;;14.40;9.73;;;;;;;4.00;70.71;100931.22;4947723;28;20304;-92
2023/01/24 07:29:18;;;;;;;;;;;;;;;;;;;;;
2023/01/24 07:32:18;;;;;;;14.45;9.23;;;;;;;4.01;70.52;100938.13;4948054;28;20214;-91
2023/01/24 07:34:58;;;;;;;;;;;;;;;;;;;;;
2023/01/24 07:37:46;;;;;;;20.10;10.90;;;;;;;4.02;70.95;100934.63;4947381;28;20210;-91
2023/01/24 07:40:27;;;;;;;19.15;10.68;;;;;;;4.02;71.10;100933.78;4942518;28;20247;-92
2023/01/24 07:43:19;;;;;;;;;;;;;;;;;;;;;
2023/01/24 07:45:53;;;;;;;14.05;9.90;;;;;;;3.99;70.85;100945.09;4897994;28;20457;-92
2023/01/24 07:49:00;;;;;;;15.20;11.55;;;;;;;4.01;70.83;100942.47;4945518;28;20211;-93
2023/01/24 07:54:43;;;;;;;11.10;8.35;;;;;;;4.03;70.91;100946.78;4916445;29;20618;-80
2023/01/24 07:57:08;;;;;;;11.73;8.10;;;;;;;4.03;70.83;100951.97;4926026;29;20221;-79
2023/01/24 07:59:34;;;;;;;16.63;10.27;;;;;;;4.04;70.80;100956.28;4934588;29;20209;-79
2023/01/24 08:01:59;;;;;;;14.80;9.80;;;;;;;4.03;70.62;100959.78;4936412;29;20292;-81
2023/01/24 08:04:25;;;;;;;14.40;8.70;;;;;;;4.03;70.69;100956.31;4914131;29;20228;-78
2023/01/24 08:09:34;;;;;;;17.33;8.95;;;;;;;4.06;70.68;100964.06;4933216;29;20208;-77
2023/01/24 08:11:59;;;;;;;14.30;9.67;;;;;;;4.08;70.74;100962.28;4936887;29;20262;-80
2023/01/24 08:14:25;;;;;;;16.17;9.93;;;;;;;4.10;70.34;100961.38;4914042;29;20226;-78
2023/01/24 08:16:51;;;;;;;10.97;7.50;;;;;;;4.14;70.40;100965.66;4936748;28;20232;-77
2023/01/24 08:19:19;;;;;;;11.73;8.30;;;;;;;4.18;70.24;100967.31;4963879;28;20201;-78
2023/01/24 08:21:44;;;;;;;12.73;8.13;;;;;;;4.20;70.08;100969.91;4939461;28;20319;-78
2023/01/24 08:24:10;;;;;;;14.10;7.90;;;;;;;4.21;70.17;100980.31;4954596;28;20652;-79
2023/01/24 08:26:35;;;;;;;13.87;8.77;;;;;;;4.25;70.00;100977.66;4955522;28;20760;-80
2023/01/24 08:29:00;;;;;;;14.93;10.17;;;;;;;4.23;70.25;100975.06;4958042;28;20212;-78
2023/01/24 08:31:26;;;;;;;15.90;8.37;;;;;;;4.24;70.14;100976.78;4956829;28;20232;-78
2023/01/24 08:33:51;;;;;;;14.60;9.40;;;;;;;4.28;70.12;100988.00;4954109;28;20486;-78
2023/01/24 08:36:19;;;;;;;19.33;10.90;;;;;;;4.30;70.11;100986.25;4953907;28;20266;-79
2023/01/24 08:38:45;;;;;;;18.63;10.40;;;;;;;4.32;70.30;100995.75;4955836;28;20204;-78
2023/01/24 08:41:10;;;;;;;18.03;11.10;;;;;;;4.33;70.30;100984.44;4956132;28;20258;-78
2023/01/24 08:43:37;;;;;;;11.15;7.80;;;;;;;4.35;70.16;100998.28;4959205;28;20952;-79
2023/01/24 08:46:03;;;;;;;13.43;8.50;;;;;;;4.37;69.94;100991.28;4955200;28;20248;-78
2023/01/24 08:48:29;;;;;;;13.90;8.65;;;;;;;4.36;70.00;100993.94;4957818;28;20331;-77
2023/01/24 08:50:54;;;;;;;13.43;10.00;;;;;;;4.38;70.14;100989.56;4956568;28;20732;-78
2023/01/24 08:53:20;;;;;;;18.70;10.40;;;;;;;4.40;69.88;100998.19;4949720;28;20236;-78
2023/01/24 08:55:48;;;;;;;15.77;8.87;;;;;;;4.43;70.00;100995.56;4953822;28;20224;-79
2023/01/24 08:58:14;;;;;;;13.20;8.75;;;;;;;4.44;69.97;100997.28;4965705;28;20203;-79
2023/01/24 09:00:40;;;;;;;15.45;9.88;;;;;;;4.45;69.84;100993.78;4958066;28;20287;-80
2023/01/24 09:03:05;;;;;;;16.90;8.63;;;;;;;4.50;69.72;100999.78;4959631;28;20208;-80
2023/01/24 09:05:31;;;;;;;17.77;9.27;;;;;;;4.53;69.66;101002.31;4966473;28;20283;-80
2023/01/24 09:07:57;;;;;;;12.30;8.07;;;;;;;4.57;69.46;101001.41;4964085;28;20215;-80
2023/01/24 09:10:22;;;;;;;16.80;9.50;;;;;;;4.60;69.59;101003.94;4961101;28;20201;-80
2023/01/24 09:12:47;;;;;;;13.17;8.27;;;;;;;4.65;69.33;101003.88;4962854;28;20494;-80
2023/01/24 09:15:13;;;;;;;19.37;9.47;;;;;;;4.69;69.26;101004.69;4968074;28;20243;-80
2023/01/24 09:17:39;;;;;;;11.33;8.53;;;;;;;4.70;69.01;101008.97;4964319;28;20730;-79
2023/01/24 09:20:06;;;;;;;16.98;9.25;;;;;;;4.71;69.05;101008.13;4960009;28;20232;-79
2023/01/24 09:22:32;;;;;;;15.90;9.90;;;;;;;4.74;69.09;101008.06;4959997;28;20216;-79
2023/01/24 09:24:57;;;;;;;12.40;8.57;;;;;;;4.75;69.09;101014.97;4959011;28;20212;-80
2023/01/24 09:27:23;;;;;;;18.70;11.40;;;;;;;4.75;69.07;101004.56;4959443;28;20472;-79
2023/01/24 09:29:48;;;;;;;18.43;10.10;;;;;;;4.77;69.04;101008.00;4959466;28;20251;-79
2023/01/24 09:32:13;;;;;;;16.10;10.13;;;;;;;4.80;68.92;101008.81;4959873;28;20980;-80
2023/01/24 09:34:46;;;;;;;14.70;11.40;;;;;;;4.86;69.12;101005.22;4964895;28;20231;-80
2023/01/24 09:37:16;;;;;;;16.83;9.07;;;;;;;4.89;69.03;101002.59;4964225;28;20736;-80
2023/01/24 09:39:41;;;;;;;13.65;8.32;;;;;;;4.94;68.92;101007.69;4963658;28;20216;-79
2023/01/24 09:42:16;;;;;;;15.27;10.47;;;;;;;4.97;68.86;101010.25;4956283;28;20267;-79
2023/01/24 09:45:00;;;;;;;19.27;8.18;;;;;;;5.03;68.45;101012.75;4961343;28;20287;-80
2023/01/24 09:47:41;;;;;;;13.07;7.65;;;;;;;5.08;68.68;101014.38;4964836;28;20216;-80
2023/01/24 09:50:15;;;;;;;15.82;8.90;;;;;;;5.17;68.39;101015.09;4964051;28;20208;-80
2023/01/24 09:52:44;;;;;;;19.25;10.25;;;;;;;5.24;67.88;101014.13;4971156;28;20254;-80
2023/01/24 09:55:34;;;;;;;14.85;8.30;;;;;;;5.31;68.43;101018.28;4988628;28;20216;-80
2023/01/24 09:58:08;;;;;;;15.27;9.60;;;;;;;5.38;68.11;101013.84;4991901;28;20219;-80
2023/01/24 10:00:37;;;;;;;13.23;8.13;;;;;;;5.45;67.38;101010.19;4983480;28;20222;-80
2023/01/24 10:03:13;;;;;;;16.35;10.75;;;;;;;5.54;67.73;101016.09;4982658;28;20475;-80
2023/01/24 10:05:40;;;;;;;17.27;10.80;;;;;;;5.65;67.42;101010.66;4984587;28;20494;-80
2023/01/24 10:08:12;;;;;;;16.10;9.43;;;;;;;5.72;67.15;101011.38;4981108;28;20205;-79
2023/01/24 10:10:42;;;;;;;12.15;7.95;;;;;;;5.78;67.23;101013.88;4984773;28;20278;-79
2023/01/24 10:13:25;;;;;;;11.57;8.30;;;;;;;5.84;66.55;101005.06;4987058;28;20215;-80
2023/01/24 10:15:53;;;;;;;16.85;7.60;;;;;;;5.88;66.65;101006.69;4981416;28;20249;-80
2023/01/24 10:18:25;;;;;;;12.88;7.75;;;;;;;5.91;66.41;101014.44;4999552;28;20226;-80
2023/01/24 10:21:17;;;;;;;13.25;7.55;;;;;;;5.98;66.02;101013.47;5002143;28;20211;-80
2023/01/24 10:23:48;;;;;;;13.35;6.50;;;;;;;6.00;65.92;101010.84;5004569;28;20273;-80
2023/01/24 10:26:32;;;;;;;14.55;6.05;;;;;;;6.03;65.69;101008.16;4991025;28;20227;-79
2023/01/24 10:29:10;;;;;;;10.02;7.28;;;;;;;6.03;65.75;101010.78;4995619;28;20214;-79
2023/01/24 10:31:40;;;;;;;9.07;5.85;;;;;;;6.00;65.23;101011.69;4992618;28;20260;-78
2023/01/24 10:34:23;;;;;;;8.55;6.20;;;;;;;5.94;64.97;101019.63;4994037;28;20218;-78
2023/01/24 10:36:53;;;;;;;10.48;6.50;;;;;;;6.00;65.11;101019.53;4997328;28;20227;-79
2023/01/24 10:39:19;;;;;;;9.63;7.07;;;;;;;6.05;65.13;101016.78;4999923;28;20219;-79
2023/01/24 10:41:44;;;;;;;12.30;7.97;;;;;;;6.06;64.98;101015.91;4999189;28;20207;-78
2023/01/24 10:44:15;;;;;;;10.47;7.73;;;;;;;6.05;64.76;101016.78;4997918;28;20254;-79
2023/01/24 10:47:08;;;;;;;14.43;7.65;;;;;;;6.07;64.95;101022.84;4960029;28;20241;-80
2023/01/24 10:49:39;;;;;;;13.15;7.25;;;;;;;6.12;65.15;101010.53;4956341;28;20279;-79
2023/01/24 10:52:14;;;;;;;11.68;7.63;;;;;;;6.16;64.63;101015.66;4965851;28;20571;-80
2023/01/24 10:54:46;;;;;;;15.80;8.65;;;;;;;6.18;65.11;101016.50;4971436;28;20249;-79
2023/01/24 10:57:36;;;;;;;13.88;7.00;;;;;;;6.17;64.81;101011.31;4973706;28;20239;-79
2023/01/24 11:00:30;;;;;;;12.32;8.10;;;;;;;6.15;64.97;101005.25;4967772;28;20231;-79
2023/01/24 11:02:59;;;;;;;19.05;10.77;;;;;;;6.15;65.12;101011.31;4960202;28;20208;-78
2023/01/24 11:05:37;;;;;;;16.02;9.38;;;;;;;6.14;65.24;101003.56;4965982;28;20579;-78
2023/01/24 11:08:04;;;;;;;17.60;8.00;;;;;;;6.18;65.09;100995.63;4967060;28;20255;-79
2023/01/24 11:10:37;;;;;;;11.13;7.03;;;;;;;6.28;64.94;101004.09;4967466;28;20212;-79
2023/01/24 11:13:23;;;;;;;12.23;8.00;;;;;;;6.42;65.06;101001.13;4967428;28;20196;-79
2023/01/24 11:15:52;;;;;;;17.73;7.80;;;;;;;6.55;64.54;100996.47;4972763;28;20348;-79
2023/01/24 11:18:23;;;;;;;13.35;7.70;;;;;;;6.66;64.20;100994.47;4969846;28;20294;-80
2023/01/24 11:21:08;;;;;;;12.52;8.10;;;;;;;6.78;63.82;100991.53;4972675;28;20294;-80
2023/01/24 11:23:34;;;;;;;12.63;7.72;;;;;;;6.90;63.71;100990.34;4981076;28;20786;-80
2023/01/24 11:26:02;;;;;;;12.00;7.70;;;;;;;7.03;63.34;100988.28;4977318;28;20236;-80
2023/01/24 11:28:33;;;;;;;14.63;8.45;;;;;;;7.15;62.93;100992.31;4981191;28;20210;-79
2023/01/24 11:31:03;;;;;;;8.73;7.10;;;;;;;7.23;62.69;100988.59;4981745;28;20263;-80
2023/01/24 11:33:38;;;;;;;25.33;14.52;;;;;;;7.27;62.28;100985.00;4979007;28;20239;-79
2023/01/24 11:36:18;;;;;;;11.98;9.45;;;;;;;7.25;62.07;100986.78;4964703;28;20320;-80
2023/01/24 11:38:44;;;;;;;12.00;9.13;;;;;;;7.24;62.38;100992.09;4978058;28;20299;-80
2023/01/24 11:41:15;;;;;;;10.85;9.60;;;;;;;7.23;62.15;100983.34;4975670;28;20209;-79
2023/01/24 11:44:04;;;;;;;14.80;11.25;;;;;;;7.22;62.62;100980.81;4967263;28;20861;-80
2023/01/24 11:46:51;;;;;;;22.70;12.18;;;;;;;7.15;62.78;100977.47;4969187;28;20477;-80
2023/01/24 11:49:34;;;;;;;14.13;8.93;;;;;;;7.13;62.97;100981.03;4969234;28;20261;-80
2023/01/24 11:52:24;;;;;;;13.35;10.40;;;;;;;7.06;62.91;100985.59;4970977;28;20275;-80
2023/01/24 11:55:13;;;;;;;17.13;10.43;;;;;;;7.05;63.35;100971.66;4974380;28;20261;-79
2023/01/24 11:58:01;;;;;;;13.48;9.10;;;;;;;7.06;63.29;100977.75;4975883;28;20219;-80
2023/01/24 12:00:34;;;;;;;16.15;9.70;;;;;;;7.05;63.30;100968.22;4975879;28;20593;-80
2023/01/24 12:03:28;;;;;;;14.63;9.40;;;;;;;7.05;63.11;100961.22;4978225;28;20228;-80
2023/01/24 12:05:58;;;;;;;13.43;8.75;;;;;;;7.04;63.11;100964.72;4975334;28;20287;-80
2023/01/24 12:08:32;;;;;;;15.73;10.15;;;;;;;7.06;63.10;100969.91;4972747;28;20556;-80
2023/01/24 12:11:11;;;;;;;18.02;9.60;;;;;;;7.01;63.12;100956.97;4974234;28;20219;-80
2023/01/24 12:13:55;;;;;;;14.50;12.32;;;;;;;6.95;63.37;100951.06;4977395;28;20251;-80
2023/01/24 12:17:10;;;;;;;17.73;11.43;;;;;;;6.86;63.33;100958.25;4969870;28;20246;-79
2023/01/24 12:19:57;;;;;;;14.75;10.25;;;;;;;6.81;63.78;100956.66;4960362;28;21150;-79
2023/01/24 12:22:24;;;;;;;17.67;10.68;;;;;;;6.73;63.82;100954.25;4966348;28;20244;-79
2023/01/24 12:25:01;;;;;;;20.08;12.55;;;;;;;6.69;64.05;100950.00;4947725;28;20532;-79
2023/01/24 12:27:31;;;;;;;12.50;9.40;;;;;;;6.61;64.10;100958.00;4964200;28;20584;-78
2023/01/24 12:30:00;;;;;;;16.88;10.13;;;;;;;6.60;64.12;100945.88;4945905;28;20203;-79
2023/01/24 12:32:35;;;;;;;21.33;11.20;;;;;;;6.60;64.21;100948.47;4963369;28;20347;-79
2023/01/24 12:35:21;;;;;;;20.63;11.43;;;;;;;6.58;64.21;100942.44;4964638;28;20223;-78
2023/01/24 12:38:18;;;;;;;22.10;13.15;;;;;;;6.57;64.09;100937.28;4966619;28;20377;-80
2023/01/24 12:40:46;;;;;;;19.50;10.75;;;;;;;6.59;64.14;100938.09;4966894;28;20653;-78
2023/01/24 12:44:03;;;;;;;13.02;9.10;;;;;;;6.60;64.00;100930.19;4968000;28;20252;-80
2023/01/24 12:46:32;;;;;;;15.50;9.40;;;;;;;6.64;63.82;100933.56;4907198;29;20236;-78
2023/01/24 12:49:19;;;;;;;12.30;9.23;;;;;;;6.63;63.87;100930.13;4907733;29;20218;-80
2023/01/24 12:52:23;;;;;;;14.40;9.27;;;;;;;6.65;63.55;100935.31;4950203;28;20907;-79
2023/01/24 12:55:11;;;;;;;14.15;10.73;;;;;;;6.64;63.45;100928.34;4904273;29;20236;-81
2023/01/24 12:57:45;;;;;;;16.73;9.13;;;;;;;6.62;63.82;100933.63;4949897;29;20243;-79
2023/01/24 13:00:21;;;;;;;12.43;8.73;;;;;;;6.65;63.91;100941.38;4946872;28;20225;-78
2023/01/24 13:03:05;;;;;;;15.38;8.95;;;;;;;6.69;63.90;100934.31;4949830;28;20687;-78
2023/01/24 13:05:51;;;;;;;13.07;8.73;;;;;;;6.70;64.02;100930.84;4949020;29;20272;-77
2023/01/24 13:08:25;;;;;;;13.98;9.00;;;;;;;6.76;63.82;100937.63;4949388;29;20645;-78
2023/01/24 13:11:22;;;;;;;16.27;8.13;;;;;;;6.78;63.82;100934.09;4950918;29;20554;-78
2023/01/24 13:14:03;;;;;;;17.98;8.18;;;;;;;6.77;63.63;100934.97;4953285;29;20252;-78
2023/01/24 13:16:55;;;;;;;16.40;8.93;;;;;;;6.79;63.54;100940.16;4958844;28;20672;-79
2023/01/24 13:19:47;;;;;;;11.48;7.57;;;;;;;6.78;63.72;100931.47;4955765;29;20216;-77
2023/01/24 13:22:39;;;;;;;14.95;10.27;;;;;;;6.79;63.75;100934.94;4941241;29;20227;-77